createdAt,value
2019-04-03T00:00:37.959Z,9.48
2019-04-03T00:03:26.740Z,8.65
2019-04-03T00:06:15.581Z,11.63
2019-04-03T00:12:33.082Z,10.15
2019-04-03T00:15:21.904Z,7.97
2019-04-03T00:18:10.931Z,7.85
2019-04-03T00:20:59.688Z,9.58
2019-04-03T00:23:48.521Z,7.30
2019-04-03T00:26:37.346Z,10.78
2019-04-03T00:29:26.177Z,9.58
2019-04-03T00:32:14.985Z,8.80
2019-04-03T00:38:18.599Z,6.87
2019-04-03T00:41:07.416Z,10.60
2019-04-03T00:44:15.348Z,6.55
2019-04-03T00:50:32.469Z,7.92
2019-04-03T00:53:14.560Z,8.80
2019-04-03T00:56:22.433Z,9.78
2019-04-03T00:59:11.281Z,10.50
2019-04-03T01:02:19.194Z,7.78
2019-04-03T01:05:08.111Z,7.90
2019-04-03T01:07:59.251Z,7.55
2019-04-03T01:10:47.483Z,6.47
2019-04-03T01:13:36.380Z,8.45
2019-04-03T01:16:25.246Z,7.08
2019-04-03T01:19:14.195Z,7.47
2019-04-03T01:22:03.042Z,7.87
2019-04-03T01:24:51.847Z,6.97
2019-04-03T01:27:41.623Z,7.08
2019-04-03T01:30:31.362Z,6.45
2019-04-03T01:33:20.218Z,6.00
2019-04-03T01:36:09.052Z,6.30
2019-04-03T01:38:57.873Z,4.25
2019-04-03T01:41:46.717Z,9.23
2019-04-03T01:44:35.541Z,7.17
2019-04-03T01:47:24.369Z,6.72
2019-04-03T01:50:13.255Z,4.62
2019-04-03T01:52:55.241Z,7.05
2019-04-03T01:55:44.063Z,5.17
2019-04-03T01:58:32.901Z,4.15
2019-04-03T02:01:21.714Z,5.10
2019-04-03T02:04:12.131Z,4.92
2019-04-03T02:07:01.101Z,5.60
2019-04-03T02:09:49.947Z,7.28
2019-04-03T02:12:38.794Z,4.10
2019-04-03T02:15:27.611Z,3.17
2019-04-03T02:18:16.459Z,5.37
2019-04-03T02:21:05.249Z,5.20
2019-04-03T02:23:54.102Z,4.95
2019-04-03T02:26:42.920Z,3.98
2019-04-03T02:29:50.863Z,4.00
2019-04-03T02:32:39.709Z,5.70
2019-04-03T02:35:28.551Z,4.33
2019-04-03T02:38:21.319Z,5.65
2019-04-03T02:41:07.938Z,6.20
2019-04-03T02:43:56.752Z,4.40
2019-04-03T02:46:45.713Z,7.75
2019-04-03T02:49:34.513Z,4.47
2019-04-03T02:55:31.581Z,3.47
2019-04-03T02:58:22.049Z,5.20
2019-04-03T03:01:10.947Z,3.98
2019-04-03T03:04:21.787Z,4.50
2019-04-03T03:07:09.521Z,3.12
2019-04-03T03:13:26.921Z,2.98
2019-04-03T03:16:18.760Z,1.72
2019-04-03T03:19:07.892Z,2.20
2019-04-03T03:22:18.592Z,1.95
2019-04-03T03:25:08.291Z,2.42
2019-04-03T03:31:12.779Z,2.70
2019-04-03T03:37:18.143Z,3.50
2019-04-03T03:40:08.832Z,2.25
2019-04-03T03:43:17.022Z,2.10
2019-04-03T03:46:16.574Z,2.55
2019-04-03T03:52:21.031Z,2.27
2019-04-03T03:55:05.483Z,2.37
2019-04-03T04:01:09.353Z,5.12
2019-04-03T04:07:12.741Z,6.85
2019-04-03T04:13:30.264Z,4.75
2019-04-03T04:16:21.179Z,2.10
2019-04-03T04:19:10.146Z,3.12
2019-04-03T04:21:59.012Z,2.50
2019-04-03T04:24:47.851Z,4.50
2019-04-03T04:27:38.616Z,3.10
2019-04-03T04:30:27.232Z,3.02
2019-04-03T04:33:17.221Z,2.20
2019-04-03T04:36:06.666Z,2.65
2019-04-03T04:38:55.840Z,2.52
2019-04-03T04:41:46.046Z,3.72
2019-04-03T04:44:34.889Z,2.30
2019-04-03T04:47:23.729Z,3.95
2019-04-03T04:50:12.687Z,2.30
2019-04-03T04:53:01.516Z,1.95
2019-04-03T04:55:43.671Z,3.00
2019-04-03T04:58:32.500Z,3.60
2019-04-03T05:01:21.341Z,3.55
2019-04-03T05:04:10.159Z,3.22
2019-04-03T05:07:00.166Z,3.40
2019-04-03T05:09:49.542Z,2.20
2019-04-03T05:12:39.157Z,2.65
2019-04-03T05:15:28.947Z,4.97
2019-04-03T05:18:36.903Z,2.80
2019-04-03T05:21:25.731Z,3.27
2019-04-03T05:24:14.644Z,6.58
2019-04-03T05:30:52.651Z,7.28
2019-04-03T05:33:42.380Z,5.15
2019-04-03T05:36:32.109Z,5.15
2019-04-03T05:39:22.065Z,5.35
2019-04-03T05:42:11.502Z,3.37
2019-04-03T05:45:00.323Z,6.17
2019-04-03T05:47:49.151Z,8.25
2019-04-03T05:50:37.967Z,6.33
2019-04-03T05:56:16.098Z,6.35
2019-04-03T05:59:04.952Z,3.77
2019-04-03T06:01:53.959Z,5.72
2019-04-03T06:04:42.901Z,4.37
2019-04-03T06:07:31.754Z,5.80
2019-04-03T06:10:39.768Z,5.90
2019-04-03T06:13:09.415Z,5.33
2019-04-03T06:15:58.307Z,4.70
2019-04-03T06:18:47.693Z,4.28
2019-04-03T06:21:37.676Z,10.32
2019-04-03T06:24:26.790Z,7.37
2019-04-03T06:27:19.130Z,6.08
2019-04-03T06:33:22.062Z,8.20
2019-04-03T06:35:51.551Z,5.78
2019-04-03T06:38:40.364Z,5.15
2019-04-03T06:41:29.444Z,4.87
2019-04-03T06:44:18.497Z,5.65
2019-04-03T06:47:07.400Z,8.15
2019-04-03T06:49:56.462Z,7.50
2019-04-03T06:52:46.776Z,6.80
2019-04-03T06:55:29.057Z,6.17
2019-04-03T06:58:17.864Z,5.20
2019-04-03T07:01:06.683Z,9.50
2019-04-03T07:03:55.536Z,6.12
2019-04-03T07:06:45.176Z,4.37
2019-04-03T07:09:36.820Z,4.60
2019-04-03T07:12:25.527Z,5.33
2019-04-03T07:15:14.350Z,4.95
2019-04-03T07:18:05.216Z,4.87
2019-04-03T07:20:53.970Z,5.85
2019-04-03T07:23:42.799Z,5.15
2019-04-03T07:26:31.826Z,5.85
2019-04-03T07:29:20.754Z,4.35
2019-04-03T07:32:09.632Z,7.17
2019-04-03T07:34:58.452Z,8.08
2019-04-03T07:37:49.047Z,7.78
2019-04-03T07:40:37.828Z,5.95
2019-04-03T07:43:27.521Z,7.37
2019-04-03T07:46:17.240Z,7.45
2019-04-03T07:49:08.511Z,9.80
2019-04-03T07:51:56.631Z,9.03
2019-04-03T07:54:45.838Z,7.35
2019-04-03T07:57:29.434Z,5.87
2019-04-03T08:00:18.776Z,9.10
2019-04-03T08:03:07.596Z,5.87
2019-04-03T08:05:56.877Z,7.40
2019-04-03T08:11:54.977Z,9.43
2019-04-03T08:14:44.160Z,8.05
2019-04-03T08:17:34.380Z,5.92
2019-04-03T08:23:51.511Z,7.70
2019-04-03T08:26:40.389Z,6.35
2019-04-03T08:29:29.249Z,6.87
2019-04-03T08:32:18.382Z,7.28
2019-04-03T08:35:19.285Z,10.03
2019-04-03T08:37:59.404Z,5.70
2019-04-03T08:40:49.779Z,7.97
2019-04-03T08:43:38.965Z,7.70
2019-04-03T08:46:27.792Z,6.72
2019-04-03T08:49:16.657Z,3.93
2019-04-03T08:52:06.124Z,3.73
2019-04-03T08:54:56.127Z,6.23
2019-04-03T08:57:38.689Z,6.77
2019-04-03T09:00:46.647Z,11.30
2019-04-03T09:03:35.497Z,9.20
2019-04-03T09:06:24.320Z,6.63
2019-04-03T09:09:13.166Z,10.00
2019-04-03T09:12:02.077Z,5.17
2019-04-03T09:14:50.887Z,7.23
2019-04-03T09:17:58.824Z,9.50
2019-04-03T09:20:47.752Z,7.33
2019-04-03T09:23:36.593Z,7.97
2019-04-03T09:26:44.480Z,9.60
2019-04-03T09:29:33.300Z,9.03
2019-04-03T09:32:41.226Z,5.70
2019-04-03T09:35:32.165Z,6.67
2019-04-03T09:38:20.640Z,5.20
2019-04-03T09:41:28.552Z,4.80
2019-04-03T09:44:17.383Z,4.97
2019-04-03T09:47:06.382Z,5.80
2019-04-03T09:49:56.779Z,5.00
2019-04-03T09:52:49.396Z,5.77
2019-04-03T09:55:37.613Z,5.67
2019-04-03T09:58:19.320Z,6.43
2019-04-03T10:01:27.206Z,5.40
2019-04-03T10:04:16.122Z,5.30
2019-04-03T10:07:05.219Z,7.13
2019-04-03T10:09:54.834Z,9.03
2019-04-03T10:12:47.618Z,4.40
2019-04-03T10:15:35.195Z,4.20
2019-04-03T10:18:24.067Z,4.00
2019-04-03T10:21:12.904Z,4.60
2019-04-03T10:24:02.123Z,3.60
2019-04-03T10:26:52.280Z,5.20
2019-04-03T10:29:41.209Z,5.43
2019-04-03T10:32:30.216Z,5.20
2019-04-03T10:35:20.669Z,4.23
2019-04-03T10:38:09.484Z,5.33
2019-04-03T10:40:58.602Z,3.10
2019-04-03T10:43:48.916Z,5.70
2019-04-03T10:46:37.784Z,5.03
2019-04-03T10:52:43.981Z,3.27
2019-04-03T10:55:31.916Z,4.43
2019-04-03T10:58:13.580Z,3.67
2019-04-03T11:04:10.362Z,7.30
2019-04-03T11:06:59.184Z,3.90
2019-04-03T11:09:48.069Z,3.33
2019-04-03T11:12:36.877Z,3.17
2019-04-03T11:15:45.109Z,2.50
2019-04-03T11:18:35.661Z,2.80
2019-04-03T11:21:25.925Z,2.80
2019-04-03T11:24:14.782Z,3.53
2019-04-03T11:27:28.973Z,2.10
2019-04-03T11:30:34.209Z,2.00
2019-04-03T11:33:23.031Z,4.23
2019-04-03T11:36:12.234Z,1.83
2019-04-03T11:39:13.146Z,3.20
2019-04-03T11:42:23.221Z,2.73
2019-04-03T11:45:04.753Z,2.00
2019-04-03T11:47:53.534Z,2.80
2019-04-03T11:50:42.367Z,4.30
2019-04-03T11:53:31.246Z,2.73
2019-04-03T11:56:20.141Z,3.13
2019-04-03T11:59:02.534Z,2.20
2019-04-03T12:01:51.366Z,2.40
2019-04-03T12:04:41.732Z,2.70
2019-04-03T12:07:30.773Z,2.73
2019-04-03T12:10:19.706Z,3.10
2019-04-03T12:13:08.592Z,2.53
2019-04-03T12:15:58.397Z,2.80
2019-04-03T12:18:48.434Z,6.80
2019-04-03T12:21:38.710Z,2.00
2019-04-03T12:24:46.660Z,3.93
2019-04-03T12:27:36.314Z,3.53
2019-04-03T12:30:26.926Z,2.40
2019-04-03T12:36:16.972Z,2.03
2019-04-03T12:39:28.225Z,3.00
2019-04-03T12:42:18.782Z,2.30
2019-04-03T12:48:37.948Z,2.37
2019-04-03T12:54:24.449Z,3.10
2019-04-03T12:57:13.325Z,3.43
2019-04-03T13:00:02.490Z,2.63
2019-04-03T13:02:53.050Z,2.27
2019-04-03T13:05:43.269Z,2.50
2019-04-03T13:08:32.111Z,3.57
2019-04-03T13:14:35.592Z,7.00
2019-04-03T13:17:24.656Z,2.07
2019-04-03T13:20:14.469Z,2.80
2019-04-03T13:23:05.094Z,2.47
2019-04-03T13:26:13.005Z,3.00
2019-04-03T13:29:02.266Z,2.70
2019-04-03T13:31:52.851Z,3.10
2019-04-03T13:34:43.258Z,6.30
2019-04-03T13:37:33.545Z,2.80
2019-04-03T13:40:22.392Z,2.37
2019-04-03T13:43:11.385Z,4.27
2019-04-03T13:46:00.228Z,3.10
2019-04-03T13:48:49.069Z,2.67
2019-04-03T13:51:37.921Z,5.70
2019-04-03T13:54:27.287Z,3.40
2019-04-03T13:57:17.408Z,4.53
2019-04-03T14:00:01.670Z,5.00
2019-04-03T14:02:50.590Z,8.00
2019-04-03T14:05:42.631Z,4.90
2019-04-03T14:08:31.410Z,4.10
2019-04-03T14:11:20.268Z,3.93
2019-04-03T14:14:09.127Z,6.97
2019-04-03T14:16:58.166Z,4.27
2019-04-03T14:20:06.230Z,2.93
2019-04-03T14:22:55.444Z,2.67
2019-04-03T14:25:45.722Z,3.87
2019-04-03T14:28:35.438Z,5.10
2019-04-03T14:31:34.846Z,3.90
2019-04-03T14:34:15.701Z,2.33
2019-04-03T14:37:26.240Z,2.97
2019-04-03T14:40:14.501Z,3.23
2019-04-03T14:43:05.188Z,2.50
2019-04-03T14:45:55.549Z,3.13
2019-04-03T14:48:44.894Z,3.67
2019-04-03T14:51:34.977Z,4.63
2019-04-03T14:54:24.562Z,4.13
2019-04-03T14:57:20.741Z,4.80
2019-04-03T14:59:57.743Z,10.10
2019-04-03T15:02:46.630Z,4.70
2019-04-03T15:05:38.895Z,5.87
2019-04-03T15:08:26.088Z,2.63
2019-04-03T15:11:14.924Z,5.23
2019-04-03T15:14:04.112Z,2.53
2019-04-03T15:20:23.130Z,6.20
2019-04-03T15:23:14.182Z,3.53
2019-04-03T15:26:03.344Z,3.00
2019-04-03T15:28:53.696Z,3.40
2019-04-03T15:32:01.667Z,6.03
2019-04-03T15:34:51.175Z,2.90
2019-04-03T15:37:42.396Z,5.90
2019-04-03T15:40:31.665Z,3.80
2019-04-03T15:43:20.481Z,2.47
2019-04-03T15:46:09.681Z,1.85
2019-04-03T15:48:58.819Z,2.47
2019-04-03T15:51:49.206Z,1.87
2019-04-03T15:54:38.115Z,3.25
2019-04-03T15:57:27.009Z,3.70
2019-04-03T16:00:10.361Z,3.60
2019-04-03T16:02:59.223Z,3.13
2019-04-03T16:05:48.079Z,3.37
2019-04-03T16:08:36.906Z,5.20
2019-04-03T16:11:26.976Z,4.93
2019-04-03T16:14:18.587Z,2.20
2019-04-03T16:20:21.383Z,3.30
2019-04-03T16:23:10.669Z,3.22
2019-04-03T16:26:00.842Z,2.62
2019-04-03T16:29:09.340Z,2.45
2019-04-03T16:31:59.550Z,3.30
2019-04-03T16:34:49.958Z,3.12
2019-04-03T16:37:57.985Z,7.22
2019-04-03T16:40:47.513Z,2.15
2019-04-03T16:43:37.354Z,3.05
2019-04-03T16:46:26.361Z,2.67
2019-04-03T16:49:15.331Z,1.75
2019-04-03T16:52:05.596Z,1.72
2019-04-03T16:54:54.971Z,1.82
2019-04-03T16:57:43.970Z,1.87
2019-04-03T17:00:28.181Z,3.77
2019-04-03T17:03:17.590Z,3.52
2019-04-03T17:06:06.778Z,2.27
2019-04-03T17:08:58.704Z,2.37
2019-04-03T17:11:48.874Z,3.92
2019-04-03T17:14:38.151Z,3.02
2019-04-03T17:17:27.155Z,3.10
2019-04-03T17:20:16.205Z,3.62
2019-04-03T17:23:17.539Z,3.20
2019-04-03T17:26:08.895Z,5.20
2019-04-03T17:29:04.028Z,3.45
2019-04-03T17:31:47.649Z,3.92
2019-04-03T17:34:37.860Z,6.97
2019-04-03T17:37:29.597Z,4.20
2019-04-03T17:40:17.763Z,3.37
2019-04-03T17:43:38.338Z,3.85
2019-04-03T17:46:17.754Z,3.40
2019-04-03T17:49:07.153Z,6.03
2019-04-03T17:51:58.144Z,6.33
2019-04-03T17:54:46.780Z,6.00
2019-04-03T17:57:37.331Z,5.50
2019-04-03T18:00:21.584Z,24.45
2019-04-03T18:03:10.445Z,12.78
2019-04-03T18:05:59.352Z,4.47
2019-04-03T18:08:48.228Z,3.92
2019-04-03T18:11:37.454Z,3.60
2019-04-03T18:17:35.791Z,5.90
2019-04-03T18:20:24.600Z,6.12
2019-04-03T18:23:13.540Z,3.52
2019-04-03T18:26:02.369Z,4.05
2019-04-03T18:28:51.347Z,5.65
2019-04-03T18:31:40.265Z,4.20
2019-04-03T18:34:29.252Z,5.72
2019-04-03T18:37:18.140Z,7.25
2019-04-03T18:40:27.873Z,10.15
2019-04-03T18:43:16.723Z,3.30
2019-04-03T18:46:05.561Z,4.00
2019-04-03T18:48:58.843Z,8.90
2019-04-03T18:51:44.999Z,6.47
2019-04-03T18:54:33.817Z,5.28
2019-04-03T18:57:22.677Z,5.58
2019-04-03T19:00:06.083Z,5.83
2019-04-03T19:02:54.930Z,5.22
2019-04-03T19:05:43.786Z,5.67
2019-04-03T19:08:32.643Z,5.72
2019-04-03T19:11:21.568Z,5.97
2019-04-03T19:14:10.413Z,5.30
2019-04-03T19:16:59.322Z,3.98
2019-04-03T19:19:48.219Z,4.20
2019-04-03T19:23:02.319Z,6.65
2019-04-03T19:25:46.878Z,4.87
2019-04-03T19:28:35.737Z,7.92
2019-04-03T19:31:05.319Z,4.90
2019-04-03T19:33:54.231Z,8.25
2019-04-03T19:36:43.278Z,6.83
2019-04-03T19:39:33.743Z,6.55
2019-04-03T19:42:22.579Z,8.25
2019-04-03T19:45:12.951Z,6.72
2019-04-03T19:48:02.186Z,8.88
2019-04-03T19:50:51.034Z,7.10
2019-04-03T19:53:59.946Z,10.60
2019-04-03T19:56:49.567Z,10.18
2019-04-03T20:02:42.710Z,8.93
2019-04-03T20:05:30.134Z,8.45
2019-04-03T20:08:19.053Z,6.80
2019-04-03T20:11:07.936Z,11.05
2019-04-03T20:13:56.768Z,11.18
2019-04-03T20:16:45.683Z,9.53
2019-04-03T20:19:34.524Z,8.15
2019-04-03T20:22:23.377Z,9.25
2019-04-03T20:25:14.525Z,10.38
2019-04-03T20:28:02.944Z,12.07
2019-04-03T20:30:51.882Z,10.45
2019-04-03T20:36:50.649Z,10.28
2019-04-03T20:39:39.028Z,8.63
2019-04-03T20:42:27.909Z,10.08
2019-04-03T20:45:35.833Z,9.10
2019-04-03T20:48:28.093Z,10.08
2019-04-03T20:51:15.312Z,11.93
2019-04-03T20:54:04.244Z,12.68
2019-04-03T20:56:57.888Z,11.83
2019-04-03T20:59:57.652Z,9.10
2019-04-03T21:02:27.031Z,10.82
2019-04-03T21:05:18.179Z,9.60
2019-04-03T21:08:06.844Z,11.08
2019-04-03T21:10:55.683Z,12.95
2019-04-03T21:13:44.679Z,8.13
2019-04-03T21:16:52.559Z,12.50
2019-04-03T21:19:41.388Z,12.13
2019-04-03T21:22:30.420Z,12.82
2019-04-03T21:25:20.784Z,11.50
2019-04-03T21:28:11.012Z,12.07
2019-04-03T21:31:00.162Z,12.55
2019-04-03T21:33:49.024Z,12.73
2019-04-03T21:36:38.852Z,11.78
2019-04-03T21:39:28.427Z,11.35
2019-04-03T21:42:36.307Z,10.98
2019-04-03T21:45:25.128Z,10.00
2019-04-03T21:48:14.373Z,9.50
2019-04-03T21:51:04.611Z,11.40
2019-04-03T21:54:12.706Z,10.03
2019-04-03T21:57:01.530Z,12.15
2019-04-03T21:59:50.380Z,12.95
2019-04-03T22:02:32.140Z,12.85
2019-04-03T22:05:21.069Z,9.55
2019-04-03T22:08:09.908Z,12.37
2019-04-03T22:14:13.895Z,9.35
2019-04-03T22:17:02.843Z,11.40
2019-04-03T22:19:51.658Z,11.35
2019-04-03T22:22:40.506Z,8.65
2019-04-03T22:25:29.343Z,10.53
2019-04-03T22:28:18.186Z,9.80
2019-04-03T22:31:07.013Z,11.83
2019-04-03T22:33:58.621Z,9.85
2019-04-03T22:36:46.462Z,7.83
2019-04-03T22:39:36.986Z,10.43
2019-04-03T22:42:25.871Z,11.95
2019-04-03T22:45:14.730Z,9.30
2019-04-03T22:48:03.559Z,11.65
2019-04-03T22:50:52.418Z,9.53
2019-04-03T23:00:25.869Z,7.90
2019-04-03T23:03:07.963Z,9.60
2019-04-03T23:05:56.814Z,9.48
2019-04-03T23:08:45.636Z,7.62
2019-04-03T23:11:34.549Z,13.90
2019-04-03T23:14:23.408Z,6.78
2019-04-03T23:17:14.013Z,6.40
2019-04-03T23:20:02.804Z,7.05
2019-04-03T23:22:51.634Z,6.83
2019-04-03T23:25:40.531Z,6.62
2019-04-03T23:28:29.365Z,6.42
2019-04-03T23:31:18.224Z,9.38
2019-04-03T23:34:07.116Z,7.72
2019-04-03T23:36:55.951Z,7.87
2019-04-03T23:39:44.770Z,9.78
2019-04-03T23:42:33.604Z,7.92
2019-04-03T23:48:22.416Z,6.58
2019-04-03T23:51:22.652Z,6.62
2019-04-03T23:54:03.321Z,8.35
2019-04-03T23:56:53.390Z,9.65
2019-04-03T23:59:42.454Z,10.03
